Dades meteomassalio
Diari Summary for Juny 29, 2017 Units:  Metric    English   Both
« Previous Day
Next Day »
Diari Semanal Mensual Anual Personalitzat
  Maxima: Minima: Mijana:
Temperatura: -17.8 °C -9.3 °C -6.8 °C
Rosada: -17.8 °C -16.6 °C -13.6 °C
Humitat: Humidity % 25 % 47 %
Velocitat del vent: 0 km/h 0 km/h 34.9 km/h
Racha vent: 0 km/h - -
Vent:- - WNW
Pressio: 0 hPa 34086.9 hPa -
Pluja: 0 mm    
Historical Graphs
 
 
Tabular Data for Juny 29, 2017
Time Temperature Dew Point Pressure Wind Wind Speed Wind Gust Humidity Rainfall Rate (Hourly) solar Conditions
-17.8 °C -17.8 °C 0 hPa Calm     Humidity % 0 mm SolarRadiationWatts/m^2 W/m2 Conditions
00:00 -5.5 °C -11.4 °C 34086.9 hPa WNW 41.7 km/h 41.7 km/h 51 % 0 mm 0.0 W/m2 CLR
00:01 -5.5 °C -11.4 °C 34086.9 hPa NNW 44.7 km/h 44.7 km/h 51 % 0 mm 0.0 W/m2 CLR
00:06 -5.6 °C -11.5 °C 34086.9 hPa NW 41.7 km/h 41.7 km/h 51 % 0 mm 0.0 W/m2 CLR
00:11 -5.7 °C -11.6 °C 34097 hPa NW 41.7 km/h 41.7 km/h 51 % 0 mm 0.0 W/m2 CLR
00:16 -5.7 °C -11.6 °C 34097 hPa NW 44.7 km/h 44.7 km/h 51 % 0 mm 0.0 W/m2 CLR
00:21 -5.8 °C -11.7 °C 34097 hPa NNW 35.7 km/h 35.7 km/h 51 % 0 mm 0.0 W/m2 CLR
00:26 -5.9 °C -11.8 °C 34107.2 hPa NW 38.8 km/h 38.8 km/h 51 % 0 mm 0.0 W/m2 CLR
00:31 -6 °C -12 °C 34107.2 hPa NW 32.8 km/h 32.8 km/h 50 % 0 mm 0.0 W/m2 CLR
00:36 -6.1 °C -12.1 °C 34107.2 hPa NNW 29.8 km/h 29.8 km/h 50 % 0 mm 0.0 W/m2 CLR
00:41 -6.2 °C -12.1 °C 34107.2 hPa NNW 41.7 km/h 41.7 km/h 51 % 0 mm 0.0 W/m2 CLR
00:46 -6.3 °C -12.3 °C 34120.7 hPa NNW 29.8 km/h 29.8 km/h 50 % 0 mm 0.0 W/m2 CLR
00:51 -6.3 °C -12.2 °C 34120.7 hPa NNW 35.7 km/h 35.7 km/h 51 % 0 mm 0.0 W/m2 CLR
00:56 -6.4 °C -12.4 °C 34120.7 hPa NNW 50.7 km/h 50.7 km/h 50 % 0 mm 0.0 W/m2 CLR
01:01 -6.4 °C -12.3 °C 34120.7 hPa NW 41.7 km/h 41.7 km/h 51 % 0 mm 0.0 W/m2 CLR
01:06 -6.6 °C -12.1 °C 34120.7 hPa NNW 50.7 km/h 50.7 km/h 53 % 0 mm 0.0 W/m2 CLR
01:11 -6.6 °C -12 °C 34120.7 hPa NW 38.8 km/h 38.8 km/h 54 % 0 mm 0.0 W/m2 CLR
01:16 -6.7 °C -12.1 °C 34130.9 hPa NW 41.7 km/h 41.7 km/h 54 % 0 mm 0.0 W/m2 CLR
01:21 -6.8 °C -12.1 °C 34130.9 hPa WNW 32.8 km/h 32.8 km/h 54 % 0 mm 0.0 W/m2 CLR
01:26 -6.9 °C -12.1 °C 34130.9 hPa NNW 35.7 km/h 35.7 km/h 55 % 0 mm 0.0 W/m2 CLR
01:31 -7 °C -12.2 °C 34130.9 hPa WNW 26.9 km/h 26.9 km/h 55 % 0 mm 0.0 W/m2 CLR
01:36 -7.1 °C -12.2 °C 34130.9 hPa West 32.8 km/h 32.8 km/h 55 % 0 mm 0.0 W/m2 CLR
01:41 -7.1 °C -12.1 °C 34130.9 hPa WNW 29.8 km/h 29.8 km/h 56 % 0 mm 0.0 W/m2 CLR
01:46 -7.2 °C -12.2 °C 34130.9 hPa NNW 29.8 km/h 29.8 km/h 56 % 0 mm 0.0 W/m2 CLR
01:51 -7.3 °C -12.1 °C 34130.9 hPa WNW 29.8 km/h 29.8 km/h 57 % 0 mm 0.0 W/m2 CLR
01:56 -7.3 °C -12 °C 34130.9 hPa WNW 38.8 km/h 38.8 km/h 58 % 0 mm 0.0 W/m2 CLR
02:01 -7.3 °C -11.9 °C 34130.9 hPa NW 32.8 km/h 32.8 km/h 59 % 0 mm 0.0 W/m2 CLR
02:06 -7.4 °C -11.8 °C 34130.9 hPa NW 32.8 km/h 32.8 km/h 60 % 0 mm 0.0 W/m2 CLR
02:11 -7.4 °C -11.8 °C 34130.9 hPa NW 29.8 km/h 29.8 km/h 60 % 0 mm 0.0 W/m2 CLR
02:16 -7.5 °C -11.9 °C 34130.9 hPa WNW 28.5 km/h 28.5 km/h 60 % 0 mm 0.0 W/m2 CLR
02:21 -7.6 °C -11.9 °C 34130.9 hPa NNW 35.7 km/h 35.7 km/h 60 % 0 mm 0.0 W/m2 CLR
02:26 -7.6 °C -12 °C 34130.9 hPa WNW 29.8 km/h 29.8 km/h 60 % 0 mm 0.0 W/m2 CLR
02:31 -7.7 °C -11.9 °C 34144.4 hPa WNW 29.8 km/h 29.8 km/h 61 % 0 mm 0.0 W/m2 CLR
02:36 -7.7 °C -12 °C 34144.4 hPa WNW 23.8 km/h 23.8 km/h 61 % 0 mm 0.0 W/m2 CLR
02:41 -7.8 °C -12 °C 34144.4 hPa WNW 26.9 km/h 26.9 km/h 61 % 0 mm 0.0 W/m2 CLR
02:46 -7.8 °C -12.1 °C 34144.4 hPa WNW 23.8 km/h 23.8 km/h 61 % 0 mm 0.0 W/m2 CLR
02:51 -7.9 °C -12 °C 34144.4 hPa WNW 29.8 km/h 29.8 km/h 62 % 0 mm 0.0 W/m2 CLR
02:56 -7.9 °C -12 °C 34144.4 hPa West 20.9 km/h 20.9 km/h 62 % 0 mm 0.0 W/m2 CLR
03:01 -7.9 °C -12.2 °C 34144.4 hPa WSW 17.9 km/h 17.9 km/h 61 % 0 mm 0.0 W/m2 CLR
03:06 -8 °C -12.1 °C 34144.4 hPa West 26.9 km/h 26.9 km/h 62 % 0 mm 0.0 W/m2 CLR
03:11 -8 °C -12.3 °C 34144.4 hPa WNW 29.8 km/h 29.8 km/h 61 % 0 mm 0.0 W/m2 CLR
03:16 -8.1 °C -12.2 °C 34144.4 hPa WNW 26.9 km/h 26.9 km/h 62 % 0 mm 0.0 W/m2 CLR
03:21 -8.1 °C -12.2 °C 34144.4 hPa WNW 23.8 km/h 23.8 km/h 62 % 0 mm 0.0 W/m2 CLR
03:26 -8.1 °C -12.2 °C 34144.4 hPa West 29.8 km/h 29.8 km/h 62 % 0 mm 0.0 W/m2 CLR
03:31 -8.1 °C -12.1 °C 34144.4 hPa West 26.9 km/h 26.9 km/h 63 % 0 mm 0.0 W/m2 CLR
03:36 -8.2 °C -12.1 °C 34144.4 hPa West 11.9 km/h 11.9 km/h 63 % 0 mm 0.0 W/m2 CLR
03:41 -8.2 °C -12.2 °C 34154.6 hPa West 11.9 km/h 11.9 km/h 63 % 0 mm 0.0 W/m2 CLR
03:43 -8.2 °C -12.2 °C 34154.6 hPa West 26.9 km/h 26.9 km/h 63 % 0 mm 0.0 W/m2 CLR
03:48 -8.3 °C -12.1 °C 34154.6 hPa West 17.9 km/h 17.9 km/h 64 % 0 mm 0.0 W/m2 CLR
03:53 -8.3 °C -12.2 °C 34154.6 hPa West 26.9 km/h 26.9 km/h 64 % 0 mm 0.0 W/m2 CLR
03:58 -8.4 °C -12.1 °C 34144.4 hPa West 26.9 km/h 26.9 km/h 65 % 0 mm 0.0 W/m2 CLR
04:03 -8.4 °C -12.1 °C 34154.6 hPa West 32.8 km/h 32.8 km/h 65 % 0 mm 0.0 W/m2 CLR
04:08 -8.5 °C -12.2 °C 34154.6 hPa WNW 26.9 km/h 26.9 km/h 65 % 0 mm 0.0 W/m2 CLR
04:13 -8.5 °C -12.1 °C 34154.6 hPa WNW 29.8 km/h 29.8 km/h 66 % 0 mm 0.0 W/m2 CLR
04:18 -8.6 °C -12.1 °C 34154.6 hPa West 23.8 km/h 23.8 km/h 66 % 0 mm 0.0 W/m2 CLR
04:23 -8.6 °C -12.2 °C 34154.6 hPa West 29.8 km/h 29.8 km/h 66 % 0 mm 0.0 W/m2 CLR
04:28 -8.7 °C -12.1 °C 34154.6 hPa West 29.8 km/h 29.8 km/h 67 % 0 mm 0.0 W/m2 CLR
04:33 -8.7 °C -12.1 °C 34154.6 hPa West 29.8 km/h 29.8 km/h 67 % 0 mm 0.0 W/m2 CLR
04:38 -8.7 °C -12.1 °C 34144.4 hPa West 26.9 km/h 26.9 km/h 67 % 0 mm 0.0 W/m2 CLR
04:43 -8.7 °C -12 °C 34154.6 hPa WNW 29.8 km/h 29.8 km/h 68 % 0 mm 0.0 W/m2 CLR
04:48 -8.7 °C -12.1 °C 34154.6 hPa WNW 26.9 km/h 26.9 km/h 68 % 0 mm 0.0 W/m2 CLR
04:53 -8.8 °C -12.1 °C 34154.6 hPa WNW 26.9 km/h 26.9 km/h 68 % 0 mm 0.0 W/m2 CLR
04:58 -8.8 °C -12.1 °C 34154.6 hPa WNW 23.8 km/h 23.8 km/h 68 % 0 mm 0.0 W/m2 CLR
05:03 -8.8 °C -12.1 °C 34154.6 hPa WNW 23.8 km/h 23.8 km/h 68 % 0 mm 0.0 W/m2 CLR
05:08 -8.8 °C -12 °C 34154.6 hPa West 23.8 km/h 23.8 km/h 69 % 0 mm 0.0 W/m2 CLR
05:13 -8.8 °C -12 °C 34154.6 hPa WNW 23.8 km/h 23.8 km/h 69 % 0 mm 0.0 W/m2 CLR
05:14 -8.8 °C -12 °C 34154.6 hPa West 26.9 km/h 26.9 km/h 69 % 0 mm 0.0 W/m2 CLR
05:19 -8.9 °C -12.1 °C 34154.6 hPa NW 32.8 km/h 32.8 km/h 69 % 0 mm 0.0 W/m2 CLR
05:24 -8.9 °C -12.1 °C 34164.7 hPa West 29.8 km/h 29.8 km/h 69 % 0 mm 0.0 W/m2 CLR
05:29 -9 °C -12.1 °C 34164.7 hPa NW 23.8 km/h 23.8 km/h 69 % 0 mm 0.0 W/m2 CLR
05:34 -9 °C -12.2 °C 34164.7 hPa NW 15 km/h 15 km/h 69 % 0 mm 0.0 W/m2 CLR
05:39 -9.1 °C -12.2 °C 34164.7 hPa WNW 17.9 km/h 17.9 km/h 69 % 0 mm 0.0 W/m2 CLR
05:44 -9.1 °C -12.3 °C 34164.7 hPa West 15 km/h 15 km/h 69 % 0 mm 0.0 W/m2 CLR
05:49 -9.1 °C -12.1 °C 34164.7 hPa West 15 km/h 15 km/h 70 % 0 mm 0.0 W/m2 CLR
05:54 -9.1 °C -12.1 °C 34178.3 hPa WNW 23.8 km/h 23.8 km/h 70 % 0 mm 0.0 W/m2 CLR
05:59 -9.1 °C -11.9 °C 34178.3 hPa West 25.9 km/h 25.9 km/h 71 % 0 mm 0.0 W/m2 CLR
06:04 -9 °C -11.9 °C 34178.3 hPa West 29.8 km/h 29.8 km/h 71 % 0 mm 0.0 W/m2 CLR
06:09 -9 °C -12.1 °C 34178.3 hPa WNW 29.8 km/h 29.8 km/h 70 % 0 mm 0.0 W/m2 CLR
06:14 -9 °C -12.1 °C 34178.3 hPa West 23.8 km/h 23.8 km/h 70 % 0 mm 0.0 W/m2 CLR
06:19 -9.1 °C -12.1 °C 34178.3 hPa West 29.8 km/h 29.8 km/h 70 % 0 mm 0.0 W/m2 CLR
06:24 -9.1 °C -12.1 °C 34178.3 hPa West 23.8 km/h 23.8 km/h 70 % 0 mm 0.0 W/m2 OVC
06:29 -9.2 °C -12.1 °C 34178.3 hPa WNW 20.9 km/h 20.9 km/h 71 % 0 mm 0.0 W/m2 OVC
06:34 -9.2 °C -12.1 °C 34178.3 hPa West 20.9 km/h 20.9 km/h 71 % 0 mm 5.0 W/m2 OVC
06:39 -9.2 °C -12.1 °C 34178.3 hPa West 26.9 km/h 26.9 km/h 71 % 0 mm 9.0 W/m2 BKN
06:44 -9.3 °C -12.2 °C 34178.3 hPa WSW 26.9 km/h 26.9 km/h 71 % 0 mm 12.0 W/m2 BKN
06:49 -9.3 °C -12.2 °C 34178.3 hPa West 29.8 km/h 29.8 km/h 71 % 0 mm 21.0 W/m2 BKN
06:54 -9.2 °C -12.1 °C 34178.3 hPa West 31.1 km/h 31.1 km/h 71 % 0 mm 28.0 W/m2 BKN
06:59 -9.2 °C -12.1 °C 34178.3 hPa West 29.8 km/h 29.8 km/h 71 % 0 mm 28.0 W/m2 BKN
07:04 -9.1 °C -12.2 °C 34178.3 hPa WNW 29.8 km/h 29.8 km/h 70 % 0 mm 23.0 W/m2 BKN
07:09 -9.1 °C -12.2 °C 34188.4 hPa West 33.6 km/h 33.6 km/h 70 % 0 mm 26.0 W/m2 BKN
07:14 -9.1 °C -12.2 °C 34188.4 hPa WNW 32.8 km/h 32.8 km/h 70 % 0 mm 42.0 W/m2 BKN
07:19 -9.1 °C -12.3 °C 34188.4 hPa WNW 32.8 km/h 32.8 km/h 69 % 0 mm 53.0 W/m2 SCT
07:24 -9.1 °C -12.2 °C 34188.4 hPa West 32.8 km/h 32.8 km/h 69 % 0 mm 65.0 W/m2 SCT
07:29 -9 °C -12.3 °C 34188.4 hPa West 32.8 km/h 32.8 km/h 68 % 0 mm 77.0 W/m2 FEW
07:34 -9 °C -12.3 °C 34188.4 hPa WNW 44.1 km/h 44.1 km/h 68 % 0 mm 91.0 W/m2 FEW
07:39 -8.9 °C -12.3 °C 34178.3 hPa WNW 35.7 km/h 35.7 km/h 67 % 0 mm 105.0 W/m2 CLR
07:44 -8.8 °C -12.3 °C 34178.3 hPa WNW 32.8 km/h 32.8 km/h 67 % 0 mm 123.0 W/m2 CLR
07:49 -8.8 °C -12.3 °C 34178.3 hPa WNW 46.7 km/h 46.7 km/h 66 % 0 mm 139.0 W/m2 CLR
07:54 -8.8 °C -12.3 °C 34178.3 hPa NW 33.6 km/h 33.6 km/h 66 % 0 mm 155.0 W/m2 CLR
07:59 -8.7 °C -12.5 °C 34178.3 hPa NW 44.7 km/h 44.7 km/h 64 % 0 mm 172.0 W/m2 CLR
08:04 -8.7 °C -12.5 °C 34178.3 hPa WNW 47.6 km/h 47.6 km/h 64 % 0 mm 188.0 W/m2 CLR
08:09 -8.7 °C -12.6 °C 34178.3 hPa WNW 50.7 km/h 50.7 km/h 63 % 0 mm 209.0 W/m2 CLR
08:14 -8.6 °C -12.7 °C 34178.3 hPa NW 46.7 km/h 46.7 km/h 62 % 0 mm 225.0 W/m2 CLR
08:19 -8.5 °C -12.7 °C 34188.4 hPa NW 44.7 km/h 44.7 km/h 61 % 0 mm 241.0 W/m2 CLR
08:24 -8.4 °C -12.7 °C 34188.4 hPa WNW 50.7 km/h 50.7 km/h 60 % 0 mm 255.0 W/m2 CLR
08:29 -8.4 °C -12.7 °C 34188.4 hPa WNW 53.6 km/h 53.6 km/h 60 % 0 mm 271.0 W/m2 CLR
08:34 -8.4 °C -12.7 °C 34188.4 hPa WNW 32.8 km/h 32.8 km/h 60 % 0 mm 287.0 W/m2 CLR
08:39 -8.2 °C -12.7 °C 34188.4 hPa WNW 38.8 km/h 38.8 km/h 59 % 0 mm 301.0 W/m2 CLR
08:44 -8.2 °C -12.8 °C 34188.4 hPa NW 41.7 km/h 41.7 km/h 58 % 0 mm 316.0 W/m2 CLR
08:49 -8.1 °C -12.9 °C 34198.6 hPa NNW 50.7 km/h 50.7 km/h 57 % 0 mm 334.0 W/m2 CLR
08:54 -8.1 °C -13 °C 34188.4 hPa WNW 44.7 km/h 44.7 km/h 56 % 0 mm 345.0 W/m2 CLR
08:59 -8 °C -12.9 °C 34188.4 hPa NW 50.7 km/h 50.7 km/h 56 % 0 mm 362.0 W/m2 CLR
09:04 -8.1 °C -13.2 °C 34188.4 hPa WNW 50.7 km/h 50.7 km/h 55 % 0 mm 380.0 W/m2 CLR
09:09 -7.9 °C -12.8 °C 34198.6 hPa NW 29.8 km/h 29.8 km/h 56 % 0 mm 394.0 W/m2 CLR
09:14 -7.7 °C -13 °C 34188.4 hPa NW 41.7 km/h 41.7 km/h 54 % 0 mm 413.0 W/m2 CLR
09:19 -7.8 °C -13 °C 34188.4 hPa WNW 38.8 km/h 38.8 km/h 54 % 0 mm 427.0 W/m2 CLR
09:24 -7.8 °C -13 °C 34188.4 hPa NW 38.8 km/h 38.8 km/h 54 % 0 mm 443.0 W/m2 CLR
09:29 -7.7 °C -12.9 °C 34188.4 hPa WNW 47.6 km/h 47.6 km/h 54 % 0 mm 455.0 W/m2 CLR
09:34 -7.7 °C -13.1 °C 34188.4 hPa WNW 44.7 km/h 44.7 km/h 53 % 0 mm 471.0 W/m2 CLR
09:39 -7.7 °C -13.1 °C 34188.4 hPa WNW 32.8 km/h 32.8 km/h 53 % 0 mm 490.0 W/m2 CLR
09:44 -7.6 °C -13.1 °C 34188.4 hPa NW 35.7 km/h 35.7 km/h 52 % 0 mm 504.0 W/m2 CLR
09:49 -7.6 °C -12.9 °C 34188.4 hPa WNW 29.8 km/h 29.8 km/h 53 % 0 mm 519.0 W/m2 CLR
09:54 -7.5 °C -13.1 °C 34188.4 hPa NNW 41.7 km/h 41.7 km/h 52 % 0 mm 533.0 W/m2 CLR
09:59 -7.4 °C -12.8 °C 34188.4 hPa NW 47.6 km/h 47.6 km/h 53 % 0 mm 550.0 W/m2 CLR
10:04 -7.3 °C -12.9 °C 34188.4 hPa WNW 29.8 km/h 29.8 km/h 52 % 0 mm 563.0 W/m2 CLR
10:09 -7.3 °C -13.3 °C 34188.4 hPa NNW 50.7 km/h 50.7 km/h 49 % 0 mm 578.0 W/m2 CLR
10:14 -7.3 °C -13.2 °C 34188.4 hPa NNW 47.6 km/h 47.6 km/h 50 % 0 mm 592.0 W/m2 CLR
10:20 -7.3 °C -13 °C 34188.4 hPa NNW 31.1 km/h 31.1 km/h 51 % 0 mm 610.0 W/m2 CLR
10:25 -7.1 °C -13.1 °C 34188.4 hPa WNW 50.7 km/h 50.7 km/h 50 % 0 mm 638.0 W/m2 CLR
10:30 -7.2 °C -13.1 °C 34188.4 hPa NW 49.2 km/h 49.2 km/h 50 % 0 mm 649.0 W/m2 CLR
10:35 -7.1 °C -13.2 °C 34188.4 hPa NW 41.7 km/h 41.7 km/h 49 % 0 mm 663.0 W/m2 CLR
10:40 -7 °C -13.1 °C 34178.3 hPa North 33.6 km/h 33.6 km/h 49 % 0 mm 686.0 W/m2 CLR
10:45 -6.9 °C -13.1 °C 34178.3 hPa NW 32.8 km/h 32.8 km/h 49 % 0 mm 684.0 W/m2 CLR
10:50 -6.9 °C -13 °C 34188.4 hPa WNW 32.8 km/h 32.8 km/h 49 % 0 mm 738.0 W/m2 CLR
10:55 -6.8 °C -13.2 °C 34188.4 hPa NNW 38.8 km/h 38.8 km/h 48 % 0 mm 786.0 W/m2 CLR
11:00 -6.9 °C -13.2 °C 34178.3 hPa West 44.7 km/h 44.7 km/h 48 % 0 mm 809.0 W/m2 CLR
11:05 -6.9 °C -13 °C 34188.4 hPa NW 46.7 km/h 46.7 km/h 49 % 0 mm 134.0 W/m2 CLR
11:10 -6.9 °C -13 °C 34188.4 hPa NW 26.9 km/h 27.7 km/h 49 % 0 mm 809.0 W/m2 CLR
11:15 -6.7 °C -13 °C 34188.4 hPa NW 35.7 km/h 35.7 km/h 48 % 0 mm 250.0 W/m2 CLR
11:20 -6.7 °C -13 °C 34188.4 hPa NW 38.8 km/h 38.8 km/h 48 % 0 mm 842.0 W/m2 CLR
11:25 -6.5 °C -13.2 °C 34188.4 hPa NNW 41.4 km/h 41.4 km/h 46 % 0 mm 921.0 W/m2 CLR
11:30 -6.6 °C -13.4 °C 34188.4 hPa NNW 44.7 km/h 44.7 km/h 45 % 0 mm 185.0 W/m2 CLR
11:35 -6.7 °C -13.4 °C 34188.4 hPa WNW 44.7 km/h 44.7 km/h 46 % 0 mm 202.0 W/m2 CLR
11:40 -6.5 °C -13.2 °C 34188.4 hPa NNW 50.7 km/h 50.7 km/h 46 % 0 mm 359.0 W/m2 CLR
11:45 -6.5 °C -13.2 °C 34188.4 hPa NW 41.7 km/h 41.7 km/h 46 % 0 mm 232.0 W/m2 CLR
11:50 -6.6 °C -13.3 °C 34188.4 hPa NW 32.8 km/h 32.8 km/h 46 % 0 mm 962.0 W/m2 CLR
11:55 -6.3 °C -13.8 °C 34188.4 hPa WNW 50.7 km/h 50.7 km/h 42 % 0 mm 1011.0 W/m2 CLR
12:00 -6.2 °C -13.4 °C 34188.4 hPa WNW 38.8 km/h 38.8 km/h 43 % 0 mm 963.0 W/m2 CLR
12:05 -6.1 °C -13.7 °C 34188.4 hPa NNW 53.6 km/h 53.6 km/h 41 % 0 mm 1005.0 W/m2 CLR
12:10 -6 °C -14.1 °C 34178.3 hPa WNW 50.7 km/h 50.7 km/h 39 % 0 mm 1049.0 W/m2 CLR
12:15 -5.8 °C -13.9 °C 34188.4 hPa WNW 62.6 km/h 62.6 km/h 39 % 0 mm 986.0 W/m2 CLR
12:20 -5.9 °C -14.2 °C 34178.3 hPa West 44.1 km/h 44.7 km/h 38 % 0 mm 953.0 W/m2 CLR
12:25 -5.7 °C -14.2 °C 34188.4 hPa West 50.7 km/h 50.7 km/h 37 % 0 mm 1004.0 W/m2 CLR
12:30 -5.7 °C -14.3 °C 34188.4 hPa NW 65.5 km/h 65.5 km/h 37 % 0 mm 1004.0 W/m2 CLR
12:35 -5.7 °C -14.2 °C 34188.4 hPa WNW 54.4 km/h 54.4 km/h 37 % 0 mm 1023.0 W/m2 CLR
12:40 -5.5 °C -14.5 °C 34188.4 hPa WNW 64.7 km/h 64.7 km/h 35 % 0 mm 1032.0 W/m2 CLR
12:45 -5.5 °C -14.5 °C 34188.4 hPa West 47.6 km/h 47.6 km/h 35 % 0 mm 1137.0 W/m2 CLR
12:50 -5.6 °C -14.8 °C 34188.4 hPa West 59.5 km/h 59.5 km/h 34 % 0 mm 200.0 W/m2 CLR
12:55 -5.6 °C -14.6 °C 34188.4 hPa WNW 32.8 km/h 34.8 km/h 35 % 0 mm 1042.0 W/m2 CLR
13:00 -5.2 °C -14.7 °C 34188.4 hPa West 41.7 km/h 45.1 km/h 33 % 0 mm 1118.0 W/m2 CLR
13:05 -5 °C -14.8 °C 34188.4 hPa NNW 62.6 km/h 62.6 km/h 32 % 0 mm 1056.0 W/m2 CLR
13:10 -5.2 °C -15.2 °C 34178.3 hPa West 74.5 km/h 74.5 km/h 31 % 0 mm 1055.0 W/m2 CLR
13:15 -5.1 °C -14.6 °C 34188.4 hPa West 50.7 km/h 50.7 km/h 33 % 0 mm 1044.0 W/m2 CLR
13:20 -5.2 °C -14.9 °C 34178.3 hPa West 65.5 km/h 65.5 km/h 32 % 0 mm 1046.0 W/m2 CLR
13:25 -5.1 °C -15.1 °C 34188.4 hPa NW 71.5 km/h 71.5 km/h 31 % 0 mm 991.0 W/m2 CLR
13:30 -4.9 °C -15.2 °C 34188.4 hPa NW 68.6 km/h 68.6 km/h 30 % 0 mm 990.0 W/m2 CLR
13:35 -4.9 °C -15.2 °C 34188.4 hPa WNW 68.6 km/h 68.6 km/h 30 % 0 mm 988.0 W/m2 CLR
13:40 -5 °C -15.3 °C 34188.4 hPa NW 74.5 km/h 74.5 km/h 30 % 0 mm 998.0 W/m2 CLR
13:45 -4.9 °C -15.2 °C 34188.4 hPa WNW 68.6 km/h 68.6 km/h 30 % 0 mm 1009.0 W/m2 CLR
13:50 -5.1 °C -15.1 °C 34188.4 hPa West 53.6 km/h 53.6 km/h 31 % 0 mm 988.0 W/m2 CLR
13:55 -5.1 °C -15.1 °C 34188.4 hPa WNW 65.5 km/h 65.5 km/h 31 % 0 mm 1053.0 W/m2 CLR
14:00 -5 °C -15.1 °C 34178.3 hPa NW 51.8 km/h 51.8 km/h 31 % 0 mm 1005.0 W/m2 CLR
14:05 -4.8 °C -15.1 °C 34178.3 hPa West 65.5 km/h 65.5 km/h 30 % 0 mm 1007.0 W/m2 CLR
14:10 -4.8 °C -15.1 °C 34178.3 hPa NNW 59.5 km/h 59.5 km/h 30 % 0 mm 1025.0 W/m2 CLR
14:11 -4.8 °C -15.1 °C 34178.3 hPa North 59.5 km/h 59.5 km/h 30 % 0 mm 1030.0 W/m2 CLR
14:16 -4.5 °C -15.1 °C 34178.3 hPa West 41.7 km/h 41.7 km/h 29 % 0 mm 1048.0 W/m2 CLR
14:21 -4.6 °C -15.2 °C 34178.3 hPa NW 65.5 km/h 65.5 km/h 29 % 0 mm 1055.0 W/m2 CLR
14:26 -4.6 °C -15.2 °C 34178.3 hPa NNW 57 km/h 57 km/h 29 % 0 mm 1062.0 W/m2 CLR
14:31 -4.7 °C -15.3 °C 34178.3 hPa WNW 59.5 km/h 59.5 km/h 29 % 0 mm 1116.0 W/m2 CLR
14:36 -5 °C -15.1 °C 34178.3 hPa WNW 65.5 km/h 65.5 km/h 31 % 0 mm 1148.0 W/m2 CLR
14:41 -5.1 °C -15.1 °C 34178.3 hPa WNW 47.6 km/h 47.6 km/h 31 % 0 mm 269.0 W/m2 CLR
14:46 -5.2 °C -15.2 °C 34178.3 hPa WNW 35.7 km/h 35.7 km/h 31 % 0 mm 374.0 W/m2 CLR
14:51 -5 °C -15.1 °C 34164.7 hPa NNW 74.5 km/h 74.5 km/h 31 % 0 mm 1162.0 W/m2 CLR
14:56 -4.8 °C -15.4 °C 34164.7 hPa NW 50.7 km/h 50.7 km/h 29 % 0 mm 381.0 W/m2 CLR
15:01 -4.9 °C -14.9 °C 34164.7 hPa WNW 50.7 km/h 50.7 km/h 31 % 0 mm 234.0 W/m2 CLR
15:06 -4.8 °C -15.1 °C 34154.6 hPa WNW 47.6 km/h 47.6 km/h 30 % 0 mm 1078.0 W/m2 CLR
15:11 -4.4 °C -15.1 °C 34154.6 hPa NW 44.7 km/h 44.7 km/h 29 % 0 mm 1004.0 W/m2 CLR
15:16 -4.3 °C -14.9 °C 34154.6 hPa NNW 47.6 km/h 47.6 km/h 29 % 0 mm 969.0 W/m2 CLR
15:21 -4.2 °C -15.2 °C 34154.6 hPa NW 59.5 km/h 59.5 km/h 28 % 0 mm 944.0 W/m2 CLR
15:26 -4.2 °C -15.1 °C 34164.7 hPa WNW 59.5 km/h 59.5 km/h 28 % 0 mm 930.0 W/m2 CLR
15:31 -4.2 °C -14.9 °C 34154.6 hPa West 47.6 km/h 47.6 km/h 29 % 0 mm 940.0 W/m2 CLR
15:36 -4.3 °C -15 °C 34154.6 hPa NW 50.7 km/h 50.7 km/h 29 % 0 mm 916.0 W/m2 CLR
15:41 -4.2 °C -15.1 °C 34154.6 hPa NNW 47.6 km/h 47.6 km/h 28 % 0 mm 940.0 W/m2 CLR
15:46 -4 °C -15 °C 34154.6 hPa NW 44.7 km/h 44.7 km/h 28 % 0 mm 940.0 W/m2 CLR
15:51 -4.2 °C -15.1 °C 34144.4 hPa NW 44.7 km/h 44.7 km/h 28 % 0 mm 939.0 W/m2 CLR
15:56 -4.1 °C -15.1 °C 34144.4 hPa NW 59.5 km/h 59.5 km/h 28 % 0 mm 895.0 W/m2 CLR
16:01 -4.1 °C -15.1 °C 34144.4 hPa NNW 35.7 km/h 35.7 km/h 28 % 0 mm 893.0 W/m2 CLR
16:06 -3.8 °C -15.2 °C 34144.4 hPa NW 44.7 km/h 44.7 km/h 27 % 0 mm 875.0 W/m2 CLR
16:11 -3.9 °C -14.9 °C 34144.4 hPa NW 47.6 km/h 47.6 km/h 28 % 0 mm 884.0 W/m2 CLR
16:16 -4.2 °C -15.4 °C 34144.4 hPa West 38.8 km/h 38.8 km/h 27 % 0 mm 984.0 W/m2 CLR
16:21 -4.2 °C -15.2 °C 34144.4 hPa NW 56.6 km/h 56.6 km/h 28 % 0 mm 953.0 W/m2 CLR
16:26 -4.1 °C -15.3 °C 34130.9 hPa NW 29.8 km/h 29.8 km/h 27 % 0 mm 898.0 W/m2 CLR
16:31 -3.9 °C -15.2 °C 34130.9 hPa North 71.5 km/h 71.5 km/h 27 % 0 mm 856.0 W/m2 CLR
16:36 -3.8 °C -15.4 °C 34130.9 hPa WNW 47.6 km/h 47.6 km/h 26 % 0 mm 846.0 W/m2 CLR
16:41 -4.1 °C -15.7 °C 34130.9 hPa NW 44.7 km/h 44.7 km/h 26 % 0 mm 141.0 W/m2 CLR
16:46 -4.2 °C -15.4 °C 34130.9 hPa NNW 44.1 km/h 44.1 km/h 27 % 0 mm 185.0 W/m2 CLR
16:51 -4.3 °C -15.6 °C 34130.9 hPa WNW 44.7 km/h 44.7 km/h 27 % 0 mm 178.0 W/m2 CLR
16:56 -4.1 °C -15.3 °C 34120.7 hPa NW 50.7 km/h 50.7 km/h 27 % 0 mm 886.0 W/m2 CLR
17:01 -3.8 °C -15.4 °C 34120.7 hPa North 35.7 km/h 35.7 km/h 26 % 0 mm 840.0 W/m2 CLR
17:02 -3.7 °C -15.3 °C 34120.7 hPa North 35.7 km/h 35.7 km/h 26 % 0 mm 840.0 W/m2 CLR
17:07 -3.6 °C -15.6 °C 34120.7 hPa North 38.8 km/h 38.8 km/h 25 % 0 mm 803.0 W/m2 CLR
17:12 -3.5 °C -15.2 °C 34120.7 hPa WNW 41.7 km/h 41.7 km/h 26 % 0 mm 803.0 W/m2 CLR
17:17 -3.9 °C -15.8 °C 34120.7 hPa WNW 47.6 km/h 47.6 km/h 25 % 0 mm 156.0 W/m2 CLR
17:22 -4.3 °C -15.8 °C 34120.7 hPa NW 47.6 km/h 47.6 km/h 26 % 0 mm 160.0 W/m2 CLR
21:03 -4.8 °C -16.3 °C 34144.4 hPa North 41.4 km/h 41.4 km/h 26 % 0 mm 26.0 W/m2 BKN
21:08 -4.9 °C -16.3 °C 34144.4 hPa North 32.8 km/h 32.8 km/h 26 % 0 mm 21.0 W/m2 BKN
21:13 -5.1 °C -16.5 °C 34144.4 hPa North 20.9 km/h 20.9 km/h 26 % 0 mm 16.0 W/m2 BKN
21:18 -5.2 °C -16.6 °C 34144.4 hPa NE 25.9 km/h 25.9 km/h 26 % 0 mm 14.0 W/m2 BKN
21:23 -5.2 °C -16.3 °C 34144.4 hPa North 29.8 km/h 29.8 km/h 27 % 0 mm 11.0 W/m2 BKN
21:28 -5.3 °C -16.3 °C 34154.6 hPa NNW 20.9 km/h 20.9 km/h 27 % 0 mm 5.0 W/m2 OVC
21:33 -5.3 °C -16.4 °C 34154.6 hPa NNW 6 km/h 6 km/h 27 % 0 mm 0.0 W/m2 OVC
21:38 -5.4 °C -16.4 °C 34154.6 hPa Calm     27 % 0 mm 0.0 W/m2 OVC
21:39 -5.4 °C -16.4 °C 34154.6 hPa Calm     27 % 0 mm 0.0 W/m2 OVC
21:44 -5.4 °C -16.2 °C 34154.6 hPa Calm     28 % 0 mm 0.0 W/m2 OVC
21:49 -5.5 °C -16.3 °C 34154.6 hPa Calm     28 % 0 mm 0.0 W/m2 CLR
21:54 -5.5 °C -16.3 °C 34154.6 hPa Calm     28 % 0 mm 0.0 W/m2 CLR
21:59 -5.6 °C -16.3 °C 34164.7 hPa Calm     28 % 0 mm 0.0 W/m2 CLR
22:04 -5.7 °C -16.1 °C 34164.7 hPa Calm     29 % 0 mm 0.0 W/m2 CLR
22:09 -5.7 °C -15.9 °C 34164.7 hPa Calm     30 % 0 mm 0.0 W/m2 CLR
22:14 -5.9 °C -16.1 °C 34164.7 hPa Calm     30 % 0 mm 0.0 W/m2 CLR
22:19 -5.9 °C -16.1 °C 34178.3 hPa Calm     30 % 0 mm 0.0 W/m2 CLR
22:24 -6 °C -16.2 °C 34178.3 hPa Calm     30 % 0 mm 0.0 W/m2 CLR
22:29 -6 °C -15.9 °C 34178.3 hPa Calm     31 % 0 mm 0.0 W/m2 CLR
22:34 -6 °C -15.9 °C 34178.3 hPa Calm     31 % 0 mm 0.0 W/m2 CLR
22:44 -6.1 °C -16 °C 34188.4 hPa Calm     31 % 0 mm 0.0 W/m2 CLR
22:49 -6.1 °C -16 °C 34188.4 hPa Calm     31 % 0 mm 0.0 W/m2 CLR
22:54 -6.1 °C -16 °C 34188.4 hPa Calm     31 % 0 mm 0.0 W/m2 CLR
22:59 -6.1 °C -16 °C 34188.4 hPa Calm     31 % 0 mm 0.0 W/m2 CLR
23:04 -6.1 °C -15.9 °C 34198.6 hPa Calm     31 % 0 mm 0.0 W/m2 CLR
23:09 -6.2 °C -15.8 °C 34198.6 hPa Calm     32 % 0 mm 0.0 W/m2 CLR
23:14 -6.2 °C -15.9 °C 34198.6 hPa Calm     32 % 0 mm 0.0 W/m2 CLR
23:19 -6.3 °C -15.7 °C 34198.6 hPa Calm     33 % 0 mm 0.0 W/m2 CLR
23:24 -6.4 °C -15.8 °C 34198.6 hPa NW 9 km/h 9 km/h 33 % 0 mm 0.0 W/m2 CLR
23:29 -6.4 °C -15.7 °C 34198.6 hPa NNW 12.9 km/h 12.9 km/h 33 % 0 mm 0.0 W/m2 CLR
23:34 -6.5 °C -15.6 °C 34198.6 hPa NW 10.3 km/h 10.3 km/h 34 % 0 mm 0.0 W/m2 CLR
23:39 -6.7 °C -15.6 °C 34198.6 hPa NW 9 km/h 9 km/h 35 % 0 mm 0.0 W/m2 CLR
23:44 -6.9 °C -15.7 °C 34198.6 hPa WNW 9 km/h 9 km/h 35 % 0 mm 0.0 W/m2 CLR
23:49 -7 °C -15.8 °C 34198.6 hPa WNW 9 km/h 9 km/h 35 % 0 mm 0.0 W/m2 CLR
23:54 -7 °C -15.8 °C 34198.6 hPa WNW 3.1 km/h 3.1 km/h 35 % 0 mm 0.0 W/m2 CLR
23:59 -7.1 °C -15.8 °C 34198.6 hPa WNW 3.1 km/h 3.1 km/h 35 % 0 mm 0.0 W/m2 CLR
Lo Temps de Massalio
Compliments of Weather Underground - 1 mb